Time;durP1;ratioP1;P1;durP2;ratioP2;P2;SDS_P1;SDS_P2;PMS_P1;PMS_P2;Temp;Humidity;BMP_temperature;BMP_pressure;BME280_temperature;BME280_humidity;BME280_pressure;Samples;Min_cycle;Max_cycle;Signal;HPM_P1;HPM_P2
2021/07/05 18:09:52;;;;;;;30.05;7.75;;;717.50;1100.80;;;;;;5070599;28;20462;-65
2021/07/05 18:12:19;;;;;;;17.63;6.15;;;717.40;1100.80;;;;;;5069086;28;20021;-66
2021/07/05 18:14:45;;;;;;;14.10;5.20;;;717.30;1100.80;;;;;;5068777;28;20034;-68
2021/07/05 18:17:12;;;;;;;14.82;5.72;;;717.30;1075.20;;;;;;5067564;28;20021;-67
2021/07/05 18:22:37;;;;;;;13.50;5.50;;;717.50;1075.20;;;;;;5359693;22;20417;-68
2021/07/05 18:25:05;;;;;;;19.63;5.75;;;717.40;1075.20;;;;;;5047154;28;20037;-68
2021/07/05 18:27:30;;;;;;;33.42;6.55;;;717.50;1075.20;;;;;;5050127;28;20022;-68
2021/07/05 18:29:57;;;;;;;14.68;5.75;;;717.50;1075.20;;;;;;5049648;28;20076;-67
2021/07/05 18:32:23;;;;;;;10.48;5.95;;;717.50;1075.20;;;;;;5050325;28;20506;-68
2021/07/05 18:34:50;;;;;;;17.15;6.55;;;717.50;1075.20;;;;;;5050160;28;20029;-67
2021/07/05 18:37:17;;;;;;;21.80;7.35;;;717.50;1075.20;;;;;;5049486;28;20086;-70
2021/07/05 18:39:43;;;;;;;35.65;8.32;;;717.50;1075.20;;;;;;5050064;28;20057;-68
2021/07/05 18:42:09;;;;;;;29.90;6.97;;;717.50;1075.20;;;;;;5050054;28;20036;-67
2021/07/05 18:44:39;;;;;;;20.33;7.05;;;717.50;1075.20;;;;;;5049430;28;20026;-67
2021/07/05 18:47:05;;;;;;;26.00;7.15;;;717.50;1075.20;;;;;;5049877;28;20063;-68
2021/07/05 18:49:31;;;;;;;22.67;7.25;;;717.50;1075.20;;;;;;5049373;28;20025;-67
2021/07/05 18:51:57;;;;;;;23.50;7.28;;;717.50;1075.20;;;;;;5049377;28;20068;-67
2021/07/05 18:54:24;;;;;;;26.50;7.78;;;717.50;1075.20;;;;;;5049340;28;20378;-67
2021/07/05 18:56:49;;;;;;;15.57;6.40;;;717.50;1100.80;;;;;;5049706;28;20021;-68
2021/07/05 18:59:15;;;;;;;15.43;6.85;;;717.40;1100.80;;;;;;5049157;28;20025;-67
2021/07/05 19:01:41;;;;;;;11.32;6.70;;;717.40;1100.80;;;;;;5049431;28;20108;-67
2021/07/05 19:04:07;;;;;;;17.45;6.85;;;717.30;1100.80;;;;;;5049676;28;20414;-67
2021/07/05 19:06:33;;;;;;;13.68;6.63;;;717.30;1100.80;;;;;;5049557;28;20032;-67
2021/07/05 19:09:00;;;;;;;12.60;6.22;;;717.30;1100.80;;;;;;5048830;28;20098;-67
2021/07/05 19:11:26;;;;;;;16.35;6.70;;;717.20;1100.80;;;;;;5049401;28;20025;-67
2021/07/05 19:13:52;;;;;;;18.55;6.15;;;717.20;1126.40;;;;;;5049198;28;20033;-67
2021/07/05 19:16:18;;;;;;;14.40;6.05;;;717.20;1126.40;;;;;;5049003;28;20021;-67
2021/07/05 19:18:44;;;;;;;12.20;6.00;;;717.20;1126.40;;;;;;5049507;28;20030;-68
2021/07/05 19:21:10;;;;;;;15.07;6.20;;;717.10;1126.40;;;;;;5036154;28;20518;-67
2021/07/05 19:23:37;;;;;;;14.43;5.85;;;717.00;1126.40;;;;;;5036206;28;20049;-67
2021/07/05 19:26:04;;;;;;;16.33;5.63;;;717.00;1126.40;;;;;;5036385;28;20030;-68
2021/07/05 19:28:30;;;;;;;14.15;5.03;;;717.00;1126.40;;;;;;5036184;28;20037;-68
2021/07/05 19:30:56;;;;;;;13.20;5.63;;;717.00;1126.40;;;;;;5036435;28;20103;-68
2021/07/05 19:33:22;;;;;;;12.25;6.47;;;717.00;1126.40;;;;;;5036144;28;20545;-68
2021/07/05 19:35:51;;;;;;;8.85;5.72;;;717.00;1126.40;;;;;;5036236;28;20060;-68
2021/07/05 19:38:18;;;;;;;12.35;5.68;;;717.00;1126.40;;;;;;5036021;28;20382;-68
2021/07/05 19:40:44;;;;;;;10.43;5.78;;;717.00;1126.40;;;;;;5036148;28;20104;-68
2021/07/05 19:43:10;;;;;;;9.60;5.80;;;717.00;1126.40;;;;;;5036190;28;20474;-67
2021/07/05 19:45:36;;;;;;;8.90;5.50;;;717.00;1126.40;;;;;;5036092;28;20026;-68
2021/07/05 19:48:02;;;;;;;8.60;5.88;;;717.00;1126.40;;;;;;5035957;28;20124;-67
2021/07/05 19:50:30;;;;;;;9.63;5.55;;;717.00;1126.40;;;;;;5035902;28;20026;-68
2021/07/05 19:52:56;;;;;;;14.50;6.57;;;717.00;1126.40;;;;;;5035623;28;20106;-68
2021/07/05 19:55:22;;;;;;;9.65;6.50;;;717.00;1126.40;;;;;;5035976;28;20064;-68
2021/07/05 19:57:48;;;;;;;12.77;5.97;;;717.00;1126.40;;;;;;5035743;28;20056;-68
2021/07/05 20:00:14;;;;;;;12.35;5.85;;;717.00;1126.40;;;;;;5036119;28;20083;-68
2021/07/05 20:02:41;;;;;;;9.50;5.60;;;717.00;1126.40;;;;;;5035566;28;20053;-68
2021/07/05 20:05:08;;;;;;;9.38;5.80;;;717.00;1126.40;;;;;;5035844;28;20021;-68
2021/07/05 20:07:34;;;;;;;8.35;5.60;;;717.00;1126.40;;;;;;5035359;28;20026;-67
2021/07/05 20:10:01;;;;;;;10.02;5.60;;;717.00;1126.40;;;;;;5035450;28;20087;-68
2021/07/05 20:12:28;;;;;;;7.38;5.68;;;716.90;1126.40;;;;;;5035454;28;20108;-68
2021/07/05 20:14:53;;;;;;;9.32;5.72;;;716.80;1126.40;;;;;;5035313;28;20032;-68
2021/07/05 20:17:19;;;;;;;11.13;5.47;;;716.80;1152.00;;;;;;5035586;28;20462;-68
2021/07/05 20:19:45;;;;;;;9.50;6.05;;;716.80;1152.00;;;;;;5035295;28;20031;-68
2021/07/05 20:22:11;;;;;;;13.07;6.25;;;716.80;1152.00;;;;;;5035439;28;20078;-68
2021/07/05 20:24:37;;;;;;;10.75;5.60;;;716.80;1152.00;;;;;;5035119;28;20045;-68
2021/07/05 20:27:03;;;;;;;10.98;6.20;;;716.80;1152.00;;;;;;5035266;28;20029;-68
2021/07/05 20:29:29;;;;;;;12.90;6.20;;;692.10;1126.40;;;;;;5035188;28;20048;-68
2021/07/05 20:31:55;;;;;;;10.18;6.07;;;692.10;1126.40;;;;;;5034113;28;20374;-67
2021/07/05 20:34:20;;;;;;;13.65;5.80;;;692.00;1126.40;;;;;;5035370;28;20025;-68
2021/07/05 20:36:46;;;;;;;21.05;7.03;;;692.00;1152.00;;;;;;5033868;28;20034;-67
2021/07/05 20:39:12;;;;;;;26.27;6.88;;;692.00;1152.00;;;;;;5021941;28;20040;-69
2021/07/05 20:41:37;;;;;;;25.77;7.35;;;691.90;1152.00;;;;;;5022079;28;20418;-66
2021/07/05 20:44:04;;;;;;;25.00;6.18;;;691.90;1152.00;;;;;;5028032;28;20029;-71
2021/07/05 20:46:36;;;;;;;22.08;6.90;;;691.90;1152.00;;;;;;5023505;28;20026;-69
2021/07/05 20:49:02;;;;;;;18.10;6.15;;;691.80;1152.00;;;;;;5023198;28;20069;-69
2021/07/05 20:51:28;;;;;;;13.43;5.78;;;691.80;1152.00;;;;;;5026793;28;20029;-70
2021/07/05 20:53:56;;;;;;;11.43;5.80;;;691.80;1152.00;;;;;;5027168;28;20041;-69
2021/07/05 20:56:22;;;;;;;15.55;5.85;;;691.80;1152.00;;;;;;5030998;28;20022;-69
2021/07/05 20:58:48;;;;;;;13.60;6.10;;;691.70;1152.00;;;;;;5016545;28;20036;-69
2021/07/05 21:01:14;;;;;;;13.25;6.50;;;691.70;1152.00;;;;;;5021401;28;20025;-70
2021/07/05 21:03:39;;;;;;;12.57;6.10;;;691.70;1177.60;;;;;;5021466;28;20434;-69
2021/07/05 21:06:05;;;;;;;12.57;6.20;;;691.60;1177.60;;;;;;5021268;28;20378;-71
2021/07/05 21:08:31;;;;;;;11.80;6.40;;;691.60;1177.60;;;;;;5022006;28;20034;-69
2021/07/05 21:10:56;;;;;;;8.52;5.72;;;691.50;1177.60;;;;;;5021471;28;20044;-68
2021/07/05 21:13:22;;;;;;;12.68;6.22;;;691.40;1177.60;;;;;;5023554;28;20157;-69
2021/07/05 21:15:48;;;;;;;9.60;6.80;;;691.40;1177.60;;;;;;5021860;28;20100;-69
2021/07/05 21:18:13;;;;;;;11.45;7.03;;;691.40;1177.60;;;;;;5022220;28;20517;-68
2021/07/05 21:20:39;;;;;;;14.35;6.07;;;691.40;1177.60;;;;;;5023121;28;20026;-69
2021/07/05 21:23:05;;;;;;;11.73;6.90;;;691.40;1177.60;;;;;;5030164;28;20048;-70
2021/07/05 21:25:31;;;;;;;18.58;6.85;;;691.40;1203.20;;;;;;5022858;28;20029;-70
2021/07/05 21:27:58;;;;;;;8.32;5.72;;;691.30;1203.20;;;;;;5023073;28;20119;-69
2021/07/05 21:30:24;;;;;;;13.95;6.47;;;691.30;1203.20;;;;;;5021455;28;20022;-69
2021/07/05 21:32:49;;;;;;;13.02;6.30;;;691.30;1203.20;;;;;;5023386;28;20036;-70
2021/07/05 21:35:16;;;;;;;11.00;7.30;;;691.30;1203.20;;;;;;5020618;28;20099;-70
2021/07/05 21:37:43;;;;;;;9.85;5.80;;;691.20;1228.80;;;;;;5019231;28;20129;-71
2021/07/05 21:40:09;;;;;;;21.30;7.53;;;691.20;1228.80;;;;;;5021121;28;20495;-67
2021/07/05 21:42:35;;;;;;;9.43;7.00;;;691.20;1228.80;;;;;;5022609;28;20029;-72
2021/07/05 21:45:02;;;;;;;13.07;6.53;;;691.20;1228.80;;;;;;5022801;28;20360;-68
2021/07/05 21:47:27;;;;;;;18.40;6.28;;;666.50;1228.80;;;;;;5021522;28;20022;-69
2021/07/05 21:49:53;;;;;;;15.55;6.82;;;666.50;1228.80;;;;;;5023249;28;20030;-69
2021/07/05 21:52:19;;;;;;;13.02;6.47;;;666.40;1228.80;;;;;;5022763;28;20406;-69
2021/07/05 21:54:45;;;;;;;16.92;6.18;;;666.40;1228.80;;;;;;5021435;28;20065;-69
2021/07/05 21:57:10;;;;;;;11.80;7.18;;;666.30;1254.40;;;;;;5023338;28;20087;-69
2021/07/05 21:59:36;;;;;;;15.90;6.75;;;666.30;1254.40;;;;;;5022858;28;20084;-70
2021/07/05 22:02:02;;;;;;;14.65;6.53;;;666.20;1254.40;;;;;;5018431;28;20044;-70
2021/07/05 22:04:28;;;;;;;11.80;5.97;;;666.10;1254.40;;;;;;5028351;28;20513;-69
2021/07/05 22:06:54;;;;;;;15.20;6.32;;;666.10;1254.40;;;;;;5030181;28;20026;-68
2021/07/05 22:09:21;;;;;;;18.02;7.50;;;666.00;1254.40;;;;;;5023018;28;20084;-69
2021/07/05 22:11:47;;;;;;;13.38;5.95;;;666.00;1254.40;;;;;;5021450;28;20473;-70
2021/07/05 22:14:13;;;;;;;8.18;6.10;;;666.00;1254.40;;;;;;5018120;28;20033;-67
2021/07/05 22:16:39;;;;;;;14.38;6.95;;;665.90;1254.40;;;;;;5024818;28;20021;-70
2021/07/05 22:19:05;;;;;;;9.18;6.50;;;665.90;1254.40;;;;;;5020132;28;20030;-68
2021/07/05 22:21:31;;;;;;;10.73;6.25;;;665.90;1254.40;;;;;;5026738;28;20387;-70
2021/07/05 22:23:57;;;;;;;14.02;6.40;;;665.90;1254.40;;;;;;5027771;28;20146;-69
2021/07/05 22:26:22;;;;;;;10.02;6.28;;;665.80;1254.40;;;;;;5027228;28;20418;-71
2021/07/05 22:28:48;;;;;;;8.07;6.03;;;665.80;1254.40;;;;;;5024856;28;20037;-67
2021/07/05 22:31:15;;;;;;;8.43;6.60;;;665.80;1254.40;;;;;;5033433;28;20025;-68
2021/07/05 22:33:41;;;;;;;14.27;6.50;;;665.80;1254.40;;;;;;5033646;28;20017;-67
2021/07/05 22:36:07;;;;;;;11.60;6.28;;;665.70;1280.00;;;;;;5033336;28;20478;-72
2021/07/05 22:38:32;;;;;;;11.75;6.78;;;665.70;1280.00;;;;;;5033164;28;20425;-68
2021/07/05 22:40:58;;;;;;;10.20;6.72;;;665.70;1280.00;;;;;;5033175;28;20021;-68
2021/07/05 22:43:24;;;;;;;10.10;6.65;;;665.60;1305.60;;;;;;5031734;28;20505;-67
2021/07/05 22:45:49;;;;;;;8.75;6.80;;;640.90;1280.00;;;;;;5033426;28;20371;-68
2021/07/05 22:48:15;;;;;;;13.05;6.85;;;640.70;1280.00;;;;;;5033222;28;20410;-67
2021/07/05 22:50:41;;;;;;;19.33;7.65;;;640.70;1305.60;;;;;;5031797;28;20034;-68
2021/07/05 22:53:07;;;;;;;19.20;7.18;;;640.70;1305.60;;;;;;5033065;28;20076;-68
2021/07/05 22:55:32;;;;;;;15.70;6.95;;;640.70;1305.60;;;;;;5033308;28;20037;-67
2021/07/05 22:57:59;;;;;;;8.52;6.75;;;640.70;1305.60;;;;;;5037067;28;20105;-68
2021/07/05 23:00:28;;;;;;;11.52;6.55;;;640.70;1305.60;;;;;;5036952;28;20554;-66
2021/07/05 23:02:57;;;;;;;11.10;6.80;;;640.60;1305.60;;;;;;5036803;28;20110;-68
2021/07/05 23:05:23;;;;;;;12.80;6.63;;;640.60;1305.60;;;;;;5036901;28;20083;-67
2021/07/05 23:07:51;;;;;;;13.45;6.82;;;640.60;1305.60;;;;;;5037219;28;20033;-67
2021/07/05 23:10:41;;;;;;;12.52;6.25;;;640.60;1305.60;;;;;;5036661;28;20366;-68
2021/07/05 23:13:08;;;;;;;11.07;6.43;;;640.50;1305.60;;;;;;4975653;28;20046;-67
2021/07/05 23:15:35;;;;;;;9.50;6.38;;;640.50;1305.60;;;;;;4975713;28;20121;-67
2021/07/05 23:18:03;;;;;;;11.10;6.20;;;640.50;1305.60;;;;;;4975652;28;20094;-67
2021/07/05 23:20:35;;;;;;;15.60;7.05;;;640.50;1305.60;;;;;;4975445;28;20027;-68
2021/07/05 23:23:02;;;;;;;11.18;6.70;;;640.50;1305.60;;;;;;4975345;28;20053;-66
2021/07/05 23:25:28;;;;;;;13.95;6.70;;;640.40;1331.20;;;;;;4975318;28;20039;-66
2021/07/05 23:27:55;;;;;;;14.35;6.78;;;640.40;1331.20;;;;;;4975671;28;20401;-67
2021/07/05 23:30:23;;;;;;;9.82;6.85;;;640.30;1331.20;;;;;;4975291;28;20388;-67
2021/07/05 23:32:50;;;;;;;12.73;7.18;;;640.30;1331.20;;;;;;4975314;28;20118;-67
2021/07/05 23:35:16;;;;;;;13.55;6.90;;;640.30;1331.20;;;;;;4975299;28;20365;-67
2021/07/05 23:37:42;;;;;;;10.98;6.60;;;640.30;1331.20;;;;;;4975231;28;20424;-66
2021/07/05 23:40:13;;;;;;;13.38;6.95;;;640.20;1331.20;;;;;;4975065;28;20038;-67
2021/07/05 23:42:39;;;;;;;9.25;6.78;;;640.20;1331.20;;;;;;4975060;28;20519;-67
2021/07/05 23:45:06;;;;;;;9.65;6.72;;;640.10;1331.20;;;;;;4975054;28;20106;-67
2021/07/05 23:47:32;;;;;;;9.05;6.53;;;640.10;1331.20;;;;;;4974984;28;20126;-67
2021/07/05 23:49:58;;;;;;;14.55;7.13;;;640.10;1331.20;;;;;;5003637;28;20065;-68
2021/07/05 23:52:23;;;;;;;13.07;7.15;;;640.10;1331.20;;;;;;5035883;28;20040;-66
2021/07/05 23:54:49;;;;;;;20.92;7.05;;;640.10;1331.20;;;;;;5035799;28;20057;-67
2021/07/05 23:57:21;;;;;;;11.93;6.97;;;640.00;1331.20;;;;;;5035841;28;20414;-67
2021/07/05 23:59:48;;;;;;;8.98;6.78;;;640.00;1356.80;;;;;;5035945;28;20041;-66
